Time;durP1;ratioP1;P1;durP2;ratioP2;P2;SDS_P1;SDS_P2;PMS_P1;PMS_P2;Temp;Humidity;BMP_temperature;BMP_pressure;BME280_temperature;BME280_humidity;BME280_pressure;Samples;Min_cycle;Max_cycle;Signal;HPM_P1;HPM_P2
2023/01/20 00:00:11;;;;;;;;;;;0.40;99.90;1.10;98857.00;;;;341951;28;82495;-87
2023/01/20 00:00:23;;;;;;;;;;;0.40;99.90;1.10;98856.00;;;;340238;28;89878;-87
2023/01/20 00:00:35;;;;;;;;;;;0.40;99.90;1.20;98855.00;;;;339243;28;83455;-87
2023/01/20 00:00:47;;;;;;;;;;;0.40;99.90;1.20;98860.00;;;;338857;28;91837;-86
2023/01/20 00:00:59;;;;;;;;;;;0.50;99.90;1.20;98851.00;;;;338118;28;82488;-87
2023/01/20 00:01:11;;;;;;;;;;;0.40;99.90;1.10;98855.00;;;;340246;28;88291;-87
2023/01/20 00:01:23;;;;;;;;;;;0.40;99.90;1.20;98866.00;;;;340596;28;83566;-87
2023/01/20 00:01:36;;;;;;;;;;;0.50;99.90;1.20;98853.00;;;;338840;28;89154;-88
2023/01/20 00:01:48;;;;;;;;;;;0.40;99.90;1.20;98855.00;;;;339385;28;82525;-87
2023/01/20 00:02:00;;;;;;;;;;;0.40;99.90;1.20;98849.00;;;;340293;28;90409;-87
2023/01/20 00:02:12;;;;;;;;;;;0.40;99.90;1.10;98862.00;;;;340544;28;82578;-87
2023/01/20 00:02:24;;;;;;;;;;;0.40;99.90;1.10;98850.00;;;;340409;28;88697;-87
2023/01/20 00:02:36;;;;;;;;;;;0.40;99.90;1.20;98856.00;;;;338143;28;82566;-86
2023/01/20 00:02:48;;;;;;;;;;;0.40;99.90;1.10;98859.00;;;;340169;28;90197;-87
2023/01/20 00:03:00;;;;;;;;;;;0.50;99.90;1.10;98857.00;;;;339489;28;83443;-87
2023/01/20 00:03:11;;;;;;;;;;;0.40;99.90;1.00;98864.00;;;;337681;28;90590;-87
2023/01/20 00:03:23;;;;;;;;;;;0.40;99.90;1.10;98851.00;;;;339295;28;83648;-86
2023/01/20 00:03:35;;;;;;;;;;;0.40;99.90;1.10;98853.00;;;;337609;28;88548;-87
2023/01/20 00:03:47;;;;;;;;;;;0.40;99.90;1.10;98854.00;;;;339397;28;82449;-87
2023/01/20 00:03:59;;;;;;;;;;;0.40;99.90;1.10;98852.00;;;;340052;28;90598;-86
2023/01/20 00:04:11;;;;;;;;;;;0.50;99.90;1.10;98853.00;;;;340628;28;83511;-87
2023/01/20 00:04:23;;;;;;;;;;;0.40;99.90;1.10;98853.00;;;;340341;28;90218;-87
2023/01/20 00:04:34;;;;;;;;;;;0.40;99.90;1.20;98860.00;;;;339495;28;82946;-87
2023/01/20 00:04:49;;;;;;;;;;;0.40;99.90;1.10;98858.00;;;;339176;28;88059;-86
2023/01/20 00:05:01;;;;;;;;;;;0.40;99.90;1.10;98860.00;;;;339478;28;82349;-87
2023/01/20 00:05:12;;;;;;;;;;;0.40;99.90;1.10;98859.00;;;;338863;28;90437;-87
2023/01/20 00:05:25;;;;;;;;;;;0.40;99.90;1.00;98858.00;;;;340491;28;83449;-87
2023/01/20 00:05:37;;;;;;;;;;;0.40;99.90;1.10;98857.00;;;;338868;28;90527;-88
2023/01/20 00:05:51;;;;;;;;;;;0.40;99.90;1.20;98859.00;;;;339419;28;83531;-87
2023/01/20 00:06:03;;;;;;;;;;;0.40;99.90;1.10;98853.00;;;;340012;28;91085;-87
2023/01/20 00:06:15;;;;;;;;;;;0.40;99.90;1.10;98854.00;;;;339123;28;83568;-87
2023/01/20 00:06:27;;;;;;;;;;;0.40;99.90;1.20;98854.00;;;;337349;28;91766;-86
2023/01/20 00:06:38;;;;;;;;;;;0.40;99.90;1.20;98853.00;;;;339172;28;83409;-87
2023/01/20 00:06:50;;;;;;;;;;;0.40;99.90;1.10;98851.00;;;;340082;28;91989;-87
2023/01/20 00:07:02;;;;;;;;;;;0.40;99.90;1.10;98861.00;;;;340291;28;83609;-87
2023/01/20 00:07:14;;;;;;;;;;;0.40;99.90;1.10;98855.00;;;;340100;28;89887;-87
2023/01/20 00:07:26;;;;;;;;;;;0.40;99.90;1.20;98850.00;;;;340642;28;83499;-87
2023/01/20 00:07:37;;;;;;;;;;;0.40;99.90;1.10;98847.00;;;;341355;28;90642;-87
2023/01/20 00:07:49;;;;;;;;;;;0.40;99.90;1.20;98858.00;;;;342090;28;83371;-87
2023/01/20 00:08:01;;;;;;;;;;;0.40;99.90;1.10;98853.00;;;;342874;28;90500;-87
2023/01/20 00:08:13;;;;;;;;;;;0.40;99.90;1.10;98852.00;;;;339425;28;83291;-87
2023/01/20 00:08:24;;;;;;;;;;;0.40;99.90;1.10;98848.00;;;;340120;28;90470;-87
2023/01/20 00:08:37;;;;;;;;;;;0.40;99.90;1.00;98857.00;;;;340441;28;82620;-86
2023/01/20 00:08:52;;;;;;;;;;;0.40;99.90;1.10;98864.00;;;;338644;28;91605;-87
2023/01/20 00:09:04;;;;;;;;;;;0.40;99.90;1.10;98854.00;;;;339044;28;82495;-87
2023/01/20 00:09:16;;;;;;;;;;;0.40;99.90;1.10;98859.00;;;;338658;28;89418;-87
2023/01/20 00:09:28;;;;;;;;;;;0.40;99.90;1.10;98851.00;;;;340627;28;83264;-87
2023/01/20 00:09:40;;;;;;;;;;;0.40;99.90;1.10;98854.00;;;;337649;28;87818;-87
2023/01/20 00:09:51;;;;;;;;;;;0.40;99.90;1.20;98859.00;;;;339363;28;83435;-87
2023/01/20 00:10:04;;;;;;;;;;;0.40;99.90;1.20;98858.00;;;;341505;28;89540;-87
2023/01/20 00:10:16;;;;;;;;;;;0.40;99.90;1.20;98857.00;;;;340716;28;83326;-87
2023/01/20 00:10:27;;;;;;;;;;;0.40;99.90;1.10;98858.00;;;;340177;28;89227;-87
2023/01/20 00:10:39;;;;;;;;;;;0.40;99.90;1.20;98859.00;;;;338100;28;82456;-86
2023/01/20 00:10:51;;;;;;;;;;;0.40;99.90;1.20;98856.00;;;;338733;28;91021;-87
2023/01/20 00:11:07;;;;;;;;;;;0.40;99.90;1.20;98860.00;;;;340779;28;82472;-87
2023/01/20 00:11:19;;;;;;;;;;;0.50;99.90;1.10;98847.00;;;;339925;28;89096;-86
2023/01/20 00:11:30;;;;;;;;;;;0.40;99.90;1.10;98854.00;;;;340636;28;83505;-87
2023/01/20 00:11:43;;;;;;;;;;;0.50;99.90;1.00;98856.00;;;;338889;28;91345;-87
2023/01/20 00:11:55;;;;;;;;;;;0.40;99.90;1.10;98859.00;;;;342091;28;83128;-87
2023/01/20 00:12:07;;;;;;;;;;;0.40;99.90;1.20;98861.00;;;;340250;28;88050;-87
2023/01/20 00:12:18;;;;;;;;;;;0.40;99.90;1.20;98852.00;;;;340578;28;83418;-87
2023/01/20 00:12:30;;;;;;;;;;;0.40;99.90;1.20;98853.00;;;;337500;28;91428;-87
2023/01/20 00:12:42;;;;;;;;;;;0.40;99.90;1.20;98859.00;;;;339138;28;83402;-87
2023/01/20 00:12:54;;;;;;;;;;;0.40;99.90;1.10;98859.00;;;;340125;28;88983;-87
2023/01/20 00:13:06;;;;;;;;;;;0.50;99.90;1.20;98857.00;;;;339151;28;82563;-87
2023/01/20 00:13:17;;;;;;;;;;;0.50;99.90;1.20;98861.00;;;;338847;28;89333;-88
2023/01/20 00:13:29;;;;;;;;;;;0.50;99.90;1.20;98861.00;;;;337929;28;83383;-87
2023/01/20 00:13:41;;;;;;;;;;;0.50;99.90;1.20;98850.00;;;;337576;28;89129;-87
2023/01/20 00:13:57;;;;;;;;;;;0.50;99.90;1.20;98855.00;;;;338069;28;82491;-86
2023/01/20 00:14:09;;;;;;;;;;;0.50;99.90;1.20;98854.00;;;;338817;28;92235;-86
2023/01/20 00:14:23;;;;;;;;;;;0.50;99.90;1.10;98853.00;;;;341920;28;83466;-87
2023/01/20 00:14:35;;;;;;;;;;;0.50;99.90;1.20;98856.00;;;;341430;28;90305;-87
2023/01/20 00:14:47;;;;;;;;;;;0.50;99.90;1.20;98860.00;;;;340474;28;82475;-87
2023/01/20 00:14:59;;;;;;;;;;;0.50;99.90;1.20;98851.00;;;;340217;28;88985;-87
2023/01/20 00:15:10;;;;;;;;;;;0.50;99.90;1.10;98858.00;;;;341808;28;83426;-87
2023/01/20 00:15:23;;;;;;;;;;;0.50;99.90;1.20;98852.00;;;;338834;28;88385;-87
2023/01/20 00:15:35;;;;;;;;;;;0.50;99.90;1.10;98855.00;;;;339430;28;83028;-87
2023/01/20 00:15:47;;;;;;;;;;;0.50;99.90;1.20;98858.00;;;;338766;28;91858;-87
2023/01/20 00:16:05;;;;;;;;;;;0.50;99.90;1.20;98859.00;;;;339364;28;82495;-86
2023/01/20 00:16:17;;;;;;;;;;;0.50;99.90;1.10;98863.00;;;;340216;28;88704;-86
2023/01/20 00:16:30;;;;;;;;;;;0.50;99.90;1.10;98864.00;;;;339317;28;83504;-87
2023/01/20 00:16:42;;;;;;;;;;;0.50;99.90;1.10;98863.00;;;;337535;28;89011;-86
2023/01/20 00:16:56;;;;;;;;;;;0.50;99.90;1.10;98862.00;;;;340665;28;83572;-87
2023/01/20 00:17:07;;;;;;;;;;;0.50;99.90;1.10;98855.00;;;;340532;28;88340;-87
2023/01/20 00:17:19;;;;;;;;;;;0.50;99.90;1.20;98858.00;;;;338287;28;82210;-87
2023/01/20 00:17:31;;;;;;;;;;;0.50;99.90;1.20;98861.00;;;;339300;28;89177;-87
2023/01/20 00:17:43;;;;;;;;;;;0.50;99.90;1.20;98863.00;;;;339838;28;82390;-87
2023/01/20 00:17:56;;;;;;;;;;;0.50;99.90;1.20;98855.00;;;;337968;28;88348;-87
2023/01/20 00:18:08;;;;;;;;;;;0.50;99.90;1.20;98860.00;;;;339283;28;83500;-86
2023/01/20 00:18:20;;;;;;;;;;;0.50;99.90;1.20;98862.00;;;;338506;28;91236;-87
2023/01/20 00:18:33;;;;;;;;;;;0.50;99.90;1.20;98860.00;;;;340656;28;83309;-87
2023/01/20 00:18:45;;;;;;;;;;;0.50;99.90;1.20;98845.00;;;;340137;28;88625;-86
2023/01/20 00:18:57;;;;;;;;;;;0.50;99.90;1.30;98856.00;;;;339455;28;82308;-87
2023/01/20 00:19:12;;;;;;;;;;;0.50;99.90;1.30;98859.00;;;;339018;28;89439;-87
2023/01/20 00:19:24;;;;;;;;;;;0.50;99.90;1.20;98860.00;;;;339277;28;82554;-87
2023/01/20 00:19:35;;;;;;;;;;;0.50;99.90;1.20;98851.00;;;;341608;28;88025;-87
2023/01/20 00:19:47;;;;;;;;;;;0.50;99.90;1.20;98861.00;;;;340839;28;82497;-87
2023/01/20 00:19:59;;;;;;;;;;;0.50;99.90;1.20;98864.00;;;;340228;28;89062;-87
2023/01/20 00:20:11;;;;;;;;;;;0.50;99.90;1.20;98857.00;;;;340723;28;83353;-87
2023/01/20 00:20:23;;;;;;;;;;;0.50;99.90;1.20;98867.00;;;;338590;28;90353;-87
2023/01/20 00:20:34;;;;;;;;;;;0.50;99.90;1.10;98862.00;;;;338101;28;82379;-87
2023/01/20 00:20:46;;;;;;;;;;;0.50;99.90;1.10;98860.00;;;;337421;28;92967;-87
2023/01/20 00:21:05;;;;;;;;;;;0.50;99.90;1.20;98869.00;;;;338111;28;82589;-87
2023/01/20 00:21:17;;;;;;;;;;;0.50;99.90;1.20;98867.00;;;;339985;28;90684;-87
2023/01/20 00:21:29;;;;;;;;;;;0.50;99.90;1.20;98862.00;;;;340667;28;82445;-86
2023/01/20 00:21:41;;;;;;;;;;;0.50;99.90;1.10;98862.00;;;;338683;28;89492;-87
2023/01/20 00:21:53;;;;;;;;;;;0.50;99.90;1.10;98866.00;;;;339450;28;82510;-87
2023/01/20 00:22:05;;;;;;;;;;;0.50;99.90;1.20;98867.00;;;;338791;28;89657;-87
2023/01/20 00:22:17;;;;;;;;;;;0.50;99.90;1.20;98868.00;;;;339319;28;82357;-87
2023/01/20 00:22:28;;;;;;;;;;;0.50;99.90;1.20;98865.00;;;;338659;28;91558;-87
2023/01/20 00:22:41;;;;;;;;;;;0.50;99.90;1.20;98869.00;;;;341890;28;83388;-87
2023/01/20 00:22:52;;;;;;;;;;;0.50;99.90;1.20;98870.00;;;;340147;28;90489;-87
2023/01/20 00:23:04;;;;;;;;;;;0.50;99.90;1.10;98869.00;;;;339379;28;83269;-87
2023/01/20 00:23:16;;;;;;;;;;;0.50;99.90;1.20;98869.00;;;;338958;28;88420;-87
2023/01/20 00:23:28;;;;;;;;;;;0.50;99.90;1.10;98866.00;;;;339248;28;82537;-87
2023/01/20 00:23:40;;;;;;;;;;;0.50;99.90;1.10;98867.00;;;;337556;28;91990;-87
2023/01/20 00:23:51;;;;;;;;;;;0.50;99.90;1.20;98862.00;;;;337910;28;83406;-86
2023/01/20 00:24:04;;;;;;;;;;;0.50;99.90;1.20;98863.00;;;;338911;28;89056;-87
2023/01/20 00:24:15;;;;;;;;;;;0.50;99.90;1.20;98866.00;;;;339343;28;82511;-87
2023/01/20 00:24:27;;;;;;;;;;;0.50;99.90;1.20;98867.00;;;;338956;28;89109;-87
2023/01/20 00:24:39;;;;;;;;;;;0.50;99.90;1.20;98871.00;;;;340596;28;82569;-86
2023/01/20 00:24:51;;;;;;;;;;;0.50;99.90;1.20;98856.00;;;;340031;28;91875;-87
2023/01/20 00:25:03;;;;;;;;;;;0.50;99.90;1.20;98868.00;;;;341825;28;83127;-87
2023/01/20 00:25:15;;;;;;;;;;;0.50;99.90;1.10;98869.00;;;;340011;28;91948;-87
2023/01/20 00:25:27;;;;;;;;;;;0.50;99.90;1.20;98876.00;;;;341900;28;83398;-87
2023/01/20 00:25:39;;;;;;;;;;;0.50;99.90;1.10;98869.00;;;;341628;28;88996;-87
2023/01/20 00:25:50;;;;;;;;;;;0.50;99.90;1.20;98862.00;;;;343374;28;83351;-87
2023/01/20 00:26:10;;;;;;;;;;;0.50;99.90;1.20;98868.00;;;;342857;28;90972;-87
2023/01/20 00:26:22;;;;;;;;;;;0.50;99.90;1.30;98868.00;;;;340714;28;83366;-87
2023/01/20 00:26:34;;;;;;;;;;;0.50;99.90;1.30;98871.00;;;;337559;28;88189;-87
2023/01/20 00:26:46;;;;;;;;;;;0.50;99.90;1.20;98864.00;;;;341637;28;83457;-87
2023/01/20 00:26:58;;;;;;;;;;;0.50;99.90;1.20;98873.00;;;;340157;28;90118;-87
2023/01/20 00:27:10;;;;;;;;;;;0.50;99.90;1.20;98874.00;;;;340718;28;82441;-87
2023/01/20 00:27:21;;;;;;;;;;;0.50;99.90;1.20;98869.00;;;;338793;28;89110;-86
2023/01/20 00:27:33;;;;;;;;;;;0.50;99.90;1.20;98866.00;;;;340020;28;83507;-85
2023/01/20 00:27:45;;;;;;;;;;;0.50;99.90;1.20;98870.00;;;;338871;28;88672;-87
2023/01/20 00:27:57;;;;;;;;;;;0.50;99.90;1.10;98866.00;;;;341776;28;83279;-86
2023/01/20 00:28:09;;;;;;;;;;;0.50;99.90;1.10;98874.00;;;;338689;28;89601;-87
2023/01/20 00:28:20;;;;;;;;;;;0.50;99.90;1.20;98871.00;;;;339040;28;82584;-86
2023/01/20 00:28:33;;;;;;;;;;;0.50;99.90;1.20;98873.00;;;;338937;28;88056;-87
2023/01/20 00:28:45;;;;;;;;;;;0.50;99.90;1.20;98872.00;;;;340577;28;83479;-87
2023/01/20 00:28:57;;;;;;;;;;;0.50;99.90;1.10;98870.00;;;;340195;28;88939;-87
2023/01/20 00:29:09;;;;;;;;;;;0.50;99.90;1.20;98864.00;;;;340657;28;83342;-87
2023/01/20 00:29:20;;;;;;;;;;;0.50;99.90;1.20;98860.00;;;;338872;28;89117;-86
2023/01/20 00:29:32;;;;;;;;;;;0.50;99.90;1.20;98876.00;;;;339256;28;82421;-87
2023/01/20 00:29:45;;;;;;;;;;;0.50;99.90;1.20;98870.00;;;;337560;28;91184;-87
2023/01/20 00:29:57;;;;;;;;;;;0.50;99.90;1.30;98871.00;;;;339312;28;82462;-86
2023/01/20 00:30:09;;;;;;;;;;;0.50;99.90;1.20;98879.00;;;;340331;28;89426;-87
2023/01/20 00:30:21;;;;;;;;;;;0.50;99.90;1.10;98879.00;;;;340444;28;83540;-87
2023/01/20 00:30:33;;;;;;;;;;;0.50;99.90;1.20;98870.00;;;;340010;28;91400;-87
2023/01/20 00:30:45;;;;;;;;;;;0.50;99.90;1.10;98871.00;;;;340606;28;82495;-87
2023/01/20 00:30:57;;;;;;;;;;;0.50;99.90;1.10;98872.00;;;;340016;28;90147;-87
2023/01/20 00:31:10;;;;;;;;;;;0.50;99.90;1.20;98882.00;;;;337796;28;83541;-87
2023/01/20 00:31:24;;;;;;;;;;;0.50;99.90;1.20;98872.00;;;;337389;28;88542;-86
2023/01/20 00:31:36;;;;;;;;;;;0.50;99.90;1.20;98872.00;;;;340520;28;83504;-87
2023/01/20 00:31:47;;;;;;;;;;;0.50;99.90;1.20;98875.00;;;;340114;28;90615;-87
2023/01/20 00:32:01;;;;;;;;;;;0.50;99.90;1.30;98875.00;;;;339257;28;83432;-87
2023/01/20 00:32:12;;;;;;;;;;;0.50;99.90;1.20;98866.00;;;;337598;28;89391;-87
2023/01/20 00:32:24;;;;;;;;;;;0.50;99.90;1.30;98873.00;;;;341982;28;83447;-87
2023/01/20 00:32:37;;;;;;;;;;;0.50;99.90;1.30;98878.00;;;;340255;28;89132;-87
2023/01/20 00:32:50;;;;;;;;;;;0.50;99.90;1.20;98867.00;;;;339277;28;83386;-87
2023/01/20 00:33:02;;;;;;;;;;;0.50;99.90;1.10;98877.00;;;;340237;28;90137;-87
2023/01/20 00:33:14;;;;;;;;;;;0.50;99.90;1.20;98877.00;;;;340747;28;83304;-87
2023/01/20 00:33:26;;;;;;;;;;;0.50;99.90;1.20;98870.00;;;;338748;28;91558;-87
2023/01/20 00:33:37;;;;;;;;;;;0.50;99.90;1.20;98879.00;;;;337705;28;83301;-87
2023/01/20 00:33:50;;;;;;;;;;;0.50;99.90;1.10;98877.00;;;;336262;28;91406;-87
2023/01/20 00:34:01;;;;;;;;;;;0.50;99.90;1.10;98881.00;;;;338955;28;83257;-87
2023/01/20 00:34:13;;;;;;;;;;;0.50;99.90;1.20;98882.00;;;;340192;28;89476;-87
2023/01/20 00:34:25;;;;;;;;;;;0.50;99.90;1.10;98882.00;;;;339387;28;83366;-87
2023/01/20 00:34:37;;;;;;;;;;;0.50;99.90;1.20;98879.00;;;;338878;28;88352;-86
2023/01/20 00:34:48;;;;;;;;;;;0.50;99.90;1.20;98881.00;;;;337982;28;82536;-87
2023/01/20 00:35:00;;;;;;;;;;;0.50;99.90;1.10;98877.00;;;;338573;28;91297;-87
2023/01/20 00:35:12;;;;;;;;;;;0.50;99.90;1.10;98886.00;;;;337839;28;83556;-87
2023/01/20 00:35:24;;;;;;;;;;;0.50;99.90;1.10;98882.00;;;;338938;28;86629;-87
2023/01/20 00:35:37;;;;;;;;;;;0.50;99.90;1.10;98873.00;;;;337739;28;83427;-87
2023/01/20 00:35:49;;;;;;;;;;;0.50;99.90;1.10;98874.00;;;;338694;28;89908;-87
2023/01/20 00:36:01;;;;;;;;;;;0.50;99.90;1.20;98888.00;;;;339246;28;83429;-86
2023/01/20 00:36:13;;;;;;;;;;;0.50;99.90;1.20;98881.00;;;;338318;28;91833;-87
2023/01/20 00:36:26;;;;;;;;;;;0.50;99.90;1.20;98883.00;;;;337987;28;83245;-87
2023/01/20 00:36:37;;;;;;;;;;;0.50;99.90;1.20;98878.00;;;;337555;28;88433;-86
2023/01/20 00:36:49;;;;;;;;;;;0.50;99.90;1.30;98879.00;;;;336636;28;82433;-87
2023/01/20 00:37:01;;;;;;;;;;;0.50;99.90;1.20;98886.00;;;;338812;28;90199;-87
2023/01/20 00:37:13;;;;;;;;;;;0.50;99.90;1.20;98875.00;;;;340750;28;82546;-87
2023/01/20 00:37:25;;;;;;;;;;;0.50;99.90;1.20;98884.00;;;;338913;28;87131;-87
2023/01/20 00:37:37;;;;;;;;;;;0.50;99.90;1.20;98891.00;;;;339309;28;82484;-87
2023/01/20 00:37:48;;;;;;;;;;;0.50;99.90;1.20;98885.00;;;;340145;28;89495;-87
2023/01/20 00:38:00;;;;;;;;;;;0.50;99.90;1.20;98883.00;;;;339256;28;82546;-87
2023/01/20 00:38:14;;;;;;;;;;;0.50;99.90;1.10;98884.00;;;;338925;28;89188;-87
2023/01/20 00:38:25;;;;;;;;;;;0.50;99.90;1.20;98889.00;;;;340689;28;82473;-87
2023/01/20 00:38:37;;;;;;;;;;;0.50;99.90;1.20;98882.00;;;;340168;28;89331;-86
2023/01/20 00:38:49;;;;;;;;;;;0.50;99.90;1.30;98896.00;;;;337929;28;83445;-87
2023/01/20 00:39:01;;;;;;;;;;;0.50;99.90;1.20;98886.00;;;;341358;28;92629;-87
2023/01/20 00:39:13;;;;;;;;;;;0.50;99.90;1.20;98885.00;;;;341998;28;82402;-88
2023/01/20 00:39:25;;;;;;;;;;;0.50;99.90;1.20;98885.00;;;;340236;28;88089;-87
2023/01/20 00:39:37;;;;;;;;;;;0.50;99.90;1.30;98881.00;;;;340435;28;83437;-87
2023/01/20 00:39:49;;;;;;;;;;;0.50;99.90;1.30;98887.00;;;;340051;28;88678;-87
2023/01/20 00:40:01;;;;;;;;;;;0.50;99.90;1.30;98891.00;;;;341966;28;83308;-87
2023/01/20 00:40:13;;;;;;;;;;;0.50;99.90;1.30;98886.00;;;;338932;28;89586;-87
2023/01/20 00:40:25;;;;;;;;;;;0.50;99.90;1.30;98903.00;;;;339056;28;82661;-86
2023/01/20 00:40:36;;;;;;;;;;;0.50;99.90;1.20;98894.00;;;;337537;28;89267;-86
2023/01/20 00:40:54;;;;;;;;;;;0.50;99.90;1.20;98904.00;;;;337994;28;82425;-87
2023/01/20 00:41:07;;;;;;;;;;;0.60;99.90;1.30;98896.00;;;;340225;28;90400;-87
2023/01/20 00:41:18;;;;;;;;;;;0.50;99.90;1.30;98894.00;;;;340505;28;83175;-87
2023/01/20 00:41:30;;;;;;;;;;;0.50;99.90;1.30;98895.00;;;;338885;28;89044;-87
2023/01/20 00:41:42;;;;;;;;;;;0.60;99.90;1.30;98889.00;;;;337984;28;83410;-87
2023/01/20 00:41:54;;;;;;;;;;;0.50;99.90;1.30;98894.00;;;;337256;28;91355;-87
2023/01/20 00:42:05;;;;;;;;;;;0.50;99.90;1.20;98895.00;;;;336690;28;82547;-87
2023/01/20 00:42:17;;;;;;;;;;;0.60;99.90;1.10;98889.00;;;;338773;28;90252;-87
2023/01/20 00:42:29;;;;;;;;;;;0.60;99.90;1.20;98891.00;;;;339169;28;83476;-87
2023/01/20 00:42:41;;;;;;;;;;;0.50;99.90;1.20;98892.00;;;;340290;28;88027;-86
2023/01/20 00:42:53;;;;;;;;;;;0.50;99.90;1.20;98894.00;;;;340486;28;83322;-87
2023/01/20 00:43:04;;;;;;;;;;;0.60;99.90;1.20;98890.00;;;;338833;28;90561;-87
2023/01/20 00:43:16;;;;;;;;;;;0.60;99.90;1.20;98892.00;;;;339316;28;83388;-86
2023/01/20 00:43:28;;;;;;;;;;;0.60;99.90;1.10;98889.00;;;;340273;28;88246;-87
2023/01/20 00:43:40;;;;;;;;;;;0.50;99.90;1.10;98895.00;;;;340549;28;83270;-87
2023/01/20 00:43:52;;;;;;;;;;;0.50;99.90;1.10;98897.00;;;;337333;28;92241;-87
2023/01/20 00:44:04;;;;;;;;;;;0.50;99.90;1.20;98896.00;;;;337861;28;83490;-87
2023/01/20 00:44:16;;;;;;;;;;;0.50;99.90;1.20;98897.00;;;;339903;28;89855;-87
2023/01/20 00:44:28;;;;;;;;;;;0.50;99.90;1.20;98889.00;;;;337909;28;82556;-86
2023/01/20 00:44:40;;;;;;;;;;;0.50;99.90;1.30;98895.00;;;;339988;28;90332;-86
2023/01/20 00:44:51;;;;;;;;;;;0.50;99.90;1.30;98902.00;;;;341383;28;83396;-87
2023/01/20 00:45:04;;;;;;;;;;;0.50;99.90;1.30;98901.00;;;;341398;28;89989;-87
2023/01/20 00:45:15;;;;;;;;;;;0.60;99.90;1.30;98902.00;;;;340674;28;83572;-87
2023/01/20 00:45:27;;;;;;;;;;;0.60;99.90;1.30;98894.00;;;;340207;28;88735;-87
2023/01/20 00:45:39;;;;;;;;;;;0.60;99.90;1.30;98897.00;;;;339315;28;83270;-86
2023/01/20 00:45:51;;;;;;;;;;;0.50;99.90;1.30;98898.00;;;;338803;28;90668;-87
2023/01/20 00:46:04;;;;;;;;;;;0.60;99.90;1.30;98899.00;;;;340324;28;83464;-87
2023/01/20 00:46:15;;;;;;;;;;;0.60;99.90;1.30;98890.00;;;;340188;28;89585;-87
2023/01/20 00:46:27;;;;;;;;;;;0.60;99.90;1.30;98903.00;;;;339342;28;83372;-87
2023/01/20 00:46:39;;;;;;;;;;;0.60;99.90;1.20;98907.00;;;;340193;28;89254;-86
2023/01/20 00:46:51;;;;;;;;;;;0.60;99.90;1.20;98893.00;;;;339142;28;83586;-87
2023/01/20 00:47:03;;;;;;;;;;;0.60;99.90;1.20;98903.00;;;;340183;28;89845;-87
2023/01/20 00:47:15;;;;;;;;;;;0.60;99.90;1.30;98897.00;;;;339307;28;83347;-87
2023/01/20 00:47:27;;;;;;;;;;;0.60;99.90;1.20;98900.00;;;;340191;28;89720;-87
2023/01/20 00:47:38;;;;;;;;;;;0.60;99.90;1.30;98893.00;;;;340605;28;83474;-87
2023/01/20 00:47:50;;;;;;;;;;;0.60;99.90;1.30;98893.00;;;;337467;28;89227;-87
2023/01/20 00:48:02;;;;;;;;;;;0.60;99.90;1.30;98896.00;;;;337632;28;83211;-86
2023/01/20 00:48:14;;;;;;;;;;;0.60;99.90;1.30;98899.00;;;;338898;28;89406;-87
2023/01/20 00:48:26;;;;;;;;;;;0.60;99.90;1.30;98906.00;;;;336697;28;83397;-87
2023/01/20 00:48:38;;;;;;;;;;;0.60;99.90;1.30;98904.00;;;;337489;28;91303;-86
2023/01/20 00:48:49;;;;;;;;;;;0.60;99.90;1.30;98903.00;;;;339254;28;83200;-87
2023/01/20 00:49:01;;;;;;;;;;;0.60;99.90;1.30;98898.00;;;;338948;28;88729;-87
2023/01/20 00:49:13;;;;;;;;;;;0.60;99.90;1.30;98901.00;;;;337894;28;82490;-87
2023/01/20 00:49:25;;;;;;;;;;;0.60;99.90;1.30;98912.00;;;;337472;28;89205;-87
2023/01/20 00:49:36;;;;;;;;;;;0.60;99.90;1.30;98903.00;;;;340120;28;82393;-86
2023/01/20 00:49:49;;;;;;;;;;;0.60;99.90;1.30;98907.00;;;;340178;28;91336;-87
2023/01/20 00:50:00;;;;;;;;;;;0.60;99.90;1.30;98912.00;;;;337973;28;82542;-87
2023/01/20 00:50:12;;;;;;;;;;;0.60;99.90;1.30;98903.00;;;;338778;28;91624;-87
2023/01/20 00:50:24;;;;;;;;;;;0.60;99.90;1.30;98907.00;;;;338937;28;83601;-87
2023/01/20 00:50:36;;;;;;;;;;;0.60;99.90;1.30;98903.00;;;;338822;28;88570;-87
2023/01/20 00:50:47;;;;;;;;;;;0.60;99.90;1.30;98912.00;;;;339317;28;82418;-87
2023/01/20 00:50:59;;;;;;;;;;;0.60;99.90;1.20;98903.00;;;;337359;28;90450;-87
2023/01/20 00:51:11;;;;;;;;;;;0.60;99.90;1.20;98904.00;;;;337837;28;82512;-87
2023/01/20 00:51:23;;;;;;;;;;;0.60;99.90;1.20;98900.00;;;;336197;28;90490;-87
2023/01/20 00:51:35;;;;;;;;;;;0.60;99.90;1.30;98912.00;;;;336691;28;83083;-87
2023/01/20 00:51:47;;;;;;;;;;;0.60;99.90;1.30;98898.00;;;;338869;28;88421;-86
2023/01/20 00:51:58;;;;;;;;;;;0.60;99.90;1.20;98909.00;;;;340525;28;82450;-87
2023/01/20 00:52:10;;;;;;;;;;;0.60;99.90;1.30;98917.00;;;;340158;28;88227;-87
2023/01/20 00:52:22;;;;;;;;;;;0.60;99.90;1.30;98901.00;;;;341874;28;83582;-87
2023/01/20 00:52:34;;;;;;;;;;;0.60;99.90;1.30;98913.00;;;;337525;28;89156;-87
2023/01/20 00:52:46;;;;;;;;;;;0.60;99.90;1.40;98910.00;;;;336600;28;83286;-87
2023/01/20 00:52:58;;;;;;;;;;;0.60;99.90;1.30;98899.00;;;;338770;28;89557;-87
2023/01/20 00:53:10;;;;;;;;;;;0.60;99.90;1.30;98908.00;;;;339378;28;82478;-87
2023/01/20 00:53:21;;;;;;;;;;;0.60;99.90;1.40;98898.00;;;;338851;28;88134;-87
2023/01/20 00:53:33;;;;;;;;;;;0.60;99.90;1.40;98900.00;;;;337967;28;83771;-87
2023/01/20 00:53:45;;;;;;;;;;;0.60;99.90;1.40;98907.00;;;;338811;28;89238;-87
2023/01/20 00:53:57;;;;;;;;;;;0.70;99.90;1.40;98898.00;;;;337934;28;83304;-86
2023/01/20 00:54:09;;;;;;;;;;;0.60;99.90;1.30;98907.00;;;;340033;28;92150;-87
2023/01/20 00:54:21;;;;;;;;;;;0.70;99.90;1.30;98908.00;;;;340430;28;83517;-87
2023/01/20 00:54:32;;;;;;;;;;;0.70;99.90;1.30;98909.00;;;;337628;28;88806;-87
2023/01/20 00:54:44;;;;;;;;;;;0.70;99.90;1.30;98913.00;;;;339019;28;83265;-86
2023/01/20 00:54:56;;;;;;;;;;;0.70;99.90;1.30;98904.00;;;;336832;28;89334;-87
2023/01/20 00:55:08;;;;;;;;;;;0.70;99.90;1.30;98913.00;;;;339166;28;83419;-87
2023/01/20 00:55:20;;;;;;;;;;;0.70;99.90;1.20;98908.00;;;;340199;28;88326;-86
2023/01/20 00:55:32;;;;;;;;;;;0.70;99.90;1.30;98909.00;;;;337974;28;83296;-87
2023/01/20 00:55:44;;;;;;;;;;;0.70;99.90;1.30;98907.00;;;;337512;28;90398;-87
2023/01/20 00:55:55;;;;;;;;;;;0.70;99.90;1.30;98906.00;;;;336622;28;83336;-87
2023/01/20 00:56:08;;;;;;;;;;;0.60;99.90;1.30;98899.00;;;;336240;28;89487;-87
2023/01/20 00:56:20;;;;;;;;;;;0.70;99.90;1.20;98895.00;;;;340700;28;82623;-87
2023/01/20 00:56:32;;;;;;;;;;;0.70;99.90;1.30;98900.00;;;;340254;28;88916;-87
2023/01/20 00:56:43;;;;;;;;;;;0.70;99.90;1.30;98911.00;;;;339245;28;83286;-87
2023/01/20 00:56:55;;;;;;;;;;;0.70;99.90;1.30;98911.00;;;;338571;28;91498;-87
2023/01/20 00:57:07;;;;;;;;;;;0.70;99.90;1.30;98906.00;;;;340346;28;83622;-87
2023/01/20 00:57:19;;;;;;;;;;;0.70;99.90;1.20;98906.00;;;;340026;28;89325;-86
2023/01/20 00:57:30;;;;;;;;;;;0.70;99.90;1.30;98906.00;;;;337777;28;83513;-87
2023/01/20 00:57:42;;;;;;;;;;;0.60;99.90;1.30;98908.00;;;;338930;28;88071;-87
2023/01/20 00:57:54;;;;;;;;;;;0.70;99.90;1.30;98908.00;;;;341977;28;83225;-87
2023/01/20 00:58:06;;;;;;;;;;;0.60;99.90;1.30;98913.00;;;;338833;28;89549;-87
2023/01/20 00:58:17;;;;;;;;;;;0.70;99.90;1.30;98903.00;;;;337992;28;82502;-87
2023/01/20 00:58:29;;;;;;;;;;;0.60;99.90;1.30;98912.00;;;;337609;28;89095;-87
2023/01/20 00:58:42;;;;;;;;;;;0.70;99.90;1.40;98916.00;;;;338935;28;82477;-86
2023/01/20 00:58:54;;;;;;;;;;;0.70;99.90;1.30;98903.00;;;;336220;28;90055;-87
2023/01/20 00:59:07;;;;;;;;;;;0.70;99.90;1.30;98905.00;;;;339250;28;83597;-87
2023/01/20 00:59:19;;;;;;;;;;;0.70;99.90;1.40;98897.00;;;;341295;28;90170;-87
2023/01/20 00:59:31;;;;;;;;;;;0.60;99.90;1.40;98912.00;;;;340584;28;83372;-87
2023/01/20 00:59:43;;;;;;;;;;;0.60;99.90;1.30;98915.00;;;;337330;28;90741;-87
2023/01/20 00:59:55;;;;;;;;;;;0.60;99.90;1.20;98912.00;;;;339368;28;82599;-87
2023/01/20 01:00:07;;;;;;;;;;;0.70;99.90;1.30;98914.00;;;;341566;28;88262;-87
2023/01/20 01:00:19;;;;;;;;;;;0.60;99.90;1.30;98905.00;;;;339216;28;83461;-87
2023/01/20 01:00:30;;;;;;;;;;;0.70;99.90;1.30;98916.00;;;;340029;28;90364;-87
2023/01/20 01:00:45;;;;;;;;;;;0.70;99.90;1.20;98917.00;;;;339311;28;83336;-86
2023/01/20 01:00:57;;;;;;;;;;;0.70;99.90;1.30;98911.00;;;;338774;28;92389;-86
2023/01/20 01:01:10;;;;;;;;;;;0.60;99.90;1.20;98912.00;;;;340696;28;82436;-87
2023/01/20 01:01:22;;;;;;;;;;;0.60;99.90;1.20;98917.00;;;;340193;28;91823;-86
2023/01/20 01:01:34;;;;;;;;;;;0.60;99.90;1.20;98916.00;;;;340628;28;83568;-86